Aérodrome :
LOGIN :

S'inscrire | Disclaimer

   EN    FR    IT 

 










Légende :    VFR   VFR Marginal   IFR   IFR Intensif   IFR Très Intensif
Visi : 
Plafond : 
>= 8 km
>= 3000ft
5 à 8 km
1000 à 3000 ft
1500m à 5 km
500 à 1000 ft
800 à 1500m
200 à 500 ft
< 800m
< 200 ft
Symboles :   Orages  Brouillard  Fortes neiges  Fortes précipitations  Vent > 20 kt
SIGMETs :   Divers  Orages  Givrage  Turbulence  Onde Orograph.  Cendres Volcan.







- Altitude de l'aérodrome : 313 ft
- Code IATA : LEH
- Voir les cartes d'approche


LFOH - Le Havre Octeville

DERNIER METAR :
  • 160630Z AUTO 13003KT 100V160 CAVOK 13/09 Q1016 NOSIG

METARs EXPIRÉS :
  • 160600Z AUTO 10004KT CAVOK 13/09 Q1015 BECMG 18010KT
  • 160530Z AUTO 11005KT CAVOK 14/09 Q1015 BECMG 18010KT
  • 160500Z AUTO 10004KT CAVOK 13/09 Q1015
  • 160430Z AUTO 12003KT CAVOK 14/09 Q1015
  • 160400Z AUTO 14003KT CAVOK 14/09 Q1015

TAF TAF LFOH
Valide du 16 à 06h jusqu'au 17 à 06h UTC


160500Z 1606/1706 12004KT CAVOK
BECMG 1607/1610 18010KT
BECMG 1611/1614 25010KT
BECMG 1614/1616 31005KT
TEMPO 1616/1706 BKN008
PROB30 1704/1706 0500 FG BKN001
ATIS : +33 2 35 54 64 93
Pas de NOTAMs connus pour ce terrain.



MET'MAP, la Météo Aéronautique d'un coup d'oeil ! - Copyright ORBIFLY Décembre 2007 - Disclaimer

ORBIFLY MET'MAP TEAM :

Programmation & Développement : Alexandra Zaïnal
Conception & Développement : Baudouin d'Aumeries
Co-Programmation & Développement : Marc-Olivier Méhu
Soutien technique & logistique : Manuel Goepfert

Contact : metmap@orbifly.com




SOURCES & CREDITS :

   NOAA